createdAt,value
2019-04-23T00:01:46.117Z,37.70
2019-04-23T00:04:13.206Z,39.00
2019-04-23T00:09:18.955Z,38.70
2019-04-23T00:11:57.729Z,39.90
2019-04-23T00:14:27.322Z,38.80
2019-04-23T00:16:55.685Z,39.40
2019-04-23T00:19:27.630Z,39.30
2019-04-23T00:22:11.010Z,38.60
2019-04-23T00:27:40.331Z,39.50
2019-04-23T00:32:28.595Z,40.30
2019-04-23T00:37:31.121Z,40.30
2019-04-23T00:39:56.689Z,40.90
2019-04-23T00:42:36.590Z,41.30
2019-04-23T00:45:01.745Z,40.40
2019-04-23T00:50:16.000Z,40.60
2019-04-23T00:52:50.357Z,40.40
2019-04-23T00:55:12.782Z,40.70
2019-04-23T01:00:19.289Z,40.70
2019-04-23T01:02:48.837Z,40.70
2019-04-23T01:05:22.182Z,40.70
2019-04-23T01:07:45.732Z,41.00
2019-04-23T01:12:59.162Z,41.40
2019-04-23T01:15:37.263Z,41.20
2019-04-23T01:18:02.219Z,42.50
2019-04-23T01:20:36.584Z,41.50
2019-04-23T01:22:48.739Z,42.20
2019-04-23T01:25:50.919Z,41.60
2019-04-23T01:28:41.846Z,41.40
2019-04-23T01:31:10.716Z,41.80
2019-04-23T01:38:51.776Z,42.00
2019-04-23T01:41:13.398Z,42.30
2019-04-23T01:46:14.719Z,42.70
2019-04-23T01:48:52.146Z,41.60
2019-04-23T01:51:20.082Z,42.80
2019-04-23T01:54:02.864Z,42.20
2019-04-23T01:58:51.878Z,42.20
2019-04-23T02:01:26.961Z,41.70
2019-04-23T02:03:57.992Z,42.70
2019-04-23T02:06:25.117Z,42.50
2019-04-23T02:09:00.489Z,42.20
2019-04-23T02:11:28.529Z,42.60
2019-04-23T02:14:03.284Z,42.40
2019-04-23T02:16:32.696Z,43.10
2019-04-23T02:19:03.683Z,43.10
2019-04-23T02:21:41.483Z,42.80
2019-04-23T02:24:06.722Z,42.60
2019-04-23T02:26:39.916Z,42.50
2019-04-23T02:29:26.615Z,43.10
2019-04-23T02:34:31.234Z,43.80
2019-04-23T02:39:21.997Z,43.10
2019-04-23T02:47:14.938Z,43.30
2019-04-23T02:49:36.031Z,45.00
2019-04-23T02:51:59.399Z,44.00
2019-04-23T02:56:59.132Z,44.10
2019-04-23T03:00:05.662Z,43.90
2019-04-23T03:02:37.121Z,43.90
2019-04-23T03:10:03.200Z,45.10
2019-04-23T03:12:32.451Z,45.30
2019-04-23T03:18:11.915Z,45.40
2019-04-23T03:20:53.189Z,45.80
2019-04-23T03:26:15.600Z,45.70
2019-04-23T03:28:51.835Z,45.80
2019-04-23T03:32:29.472Z,46.00
2019-04-23T03:51:01.267Z,46.80
2019-04-23T03:53:58.513Z,47.00
2019-04-23T03:58:42.413Z,47.00
2019-04-23T04:04:12.510Z,47.90
2019-04-23T04:06:31.224Z,47.70
2019-04-23T04:08:58.514Z,47.50
2019-04-23T04:14:04.759Z,48.40
2019-04-23T04:19:16.799Z,47.70
2019-04-23T04:21:36.907Z,48.00
2019-04-23T04:26:37.909Z,48.10
2019-04-23T04:29:00.632Z,48.20
2019-04-23T04:31:48.833Z,48.10
2019-04-23T04:34:26.979Z,49.50
2019-04-23T04:39:10.034Z,49.50
2019-04-23T04:41:42.338Z,49.70
2019-04-23T04:46:45.777Z,49.90
2019-04-23T04:49:12.426Z,50.70
2019-04-23T04:51:51.637Z,50.50
2019-04-23T04:56:43.047Z,52.30
2019-04-23T05:01:54.211Z,53.10
2019-04-23T05:04:31.284Z,52.60
2019-04-23T05:09:48.561Z,53.00
2019-04-23T05:14:33.393Z,55.00
2019-04-23T05:16:56.511Z,55.90
2019-04-23T05:22:16.633Z,58.30
2019-04-23T05:29:32.493Z,62.10
2019-04-23T05:32:10.842Z,64.00
2019-04-23T05:34:38.655Z,65.70
2019-04-23T05:37:06.080Z,68.30
2019-04-23T05:42:10.633Z,72.80
2019-04-23T05:44:43.240Z,73.80
2019-04-23T05:47:17.478Z,74.50
2019-04-23T05:49:43.871Z,76.00
2019-04-23T05:52:16.049Z,75.90
2019-04-23T05:54:52.417Z,77.80
2019-04-23T05:57:13.991Z,81.70
2019-04-23T05:59:52.831Z,81.60
2019-04-23T06:02:20.293Z,83.80
2019-04-23T06:04:49.647Z,83.50
2019-04-23T06:10:04.959Z,85.20
2019-04-23T06:12:25.432Z,83.20
2019-04-23T06:14:57.592Z,84.10
2019-04-23T06:17:24.989Z,82.90
2019-04-23T06:20:02.860Z,81.30
2019-04-23T06:22:34.976Z,85.50
2019-04-23T06:25:42.217Z,83.40
2019-04-23T06:27:47.899Z,85.00
2019-04-23T06:30:00.867Z,83.60
2019-04-23T06:32:38.054Z,83.80
2019-04-23T06:35:03.732Z,82.90
2019-04-23T06:38:06.636Z,84.30
2019-04-23T06:40:15.817Z,85.00
2019-04-23T06:43:18.118Z,93.40
2019-04-23T06:45:46.007Z,91.80
2019-04-23T06:48:24.087Z,84.00
2019-04-23T06:50:58.177Z,79.20
2019-04-23T06:53:21.582Z,76.60
2019-04-23T06:55:51.009Z,74.50
2019-04-23T06:58:34.190Z,71.80
2019-04-23T07:03:36.071Z,66.60
2019-04-23T07:08:56.260Z,69.20
2019-04-23T07:13:55.014Z,73.60
2019-04-23T07:16:14.921Z,78.80
2019-04-23T07:18:48.923Z,80.60
2019-04-23T07:21:25.089Z,78.80
2019-04-23T07:24:07.129Z,82.10
2019-04-23T07:26:30.103Z,81.50
2019-04-23T07:33:55.782Z,82.90
2019-04-23T07:36:29.192Z,81.30
2019-04-23T07:41:54.916Z,81.70
2019-04-23T07:47:33.927Z,82.30
2019-04-23T07:50:09.823Z,79.60
2019-04-23T07:52:33.238Z,79.00
2019-04-23T07:55:02.962Z,80.90
2019-04-23T07:57:25.124Z,83.80
2019-04-23T08:00:00.517Z,83.30
2019-04-23T08:02:52.418Z,81.80
2019-04-23T08:05:15.673Z,82.10
2019-04-23T08:07:41.093Z,81.50
2019-04-23T08:10:24.300Z,81.90
2019-04-23T08:12:40.257Z,82.00
2019-04-23T08:17:34.672Z,81.70
2019-04-23T08:20:29.967Z,81.40
2019-04-23T08:22:47.513Z,79.20
2019-04-23T08:25:46.526Z,83.70
2019-04-23T08:28:25.890Z,82.30
2019-04-23T08:30:46.504Z,81.00
2019-04-23T08:33:17.440Z,82.20
2019-04-23T08:35:51.417Z,79.60
2019-04-23T08:38:26.403Z,79.20
2019-04-23T08:41:07.330Z,80.30
2019-04-23T08:43:36.765Z,82.50
2019-04-23T08:46:22.955Z,79.80
2019-04-23T08:51:40.845Z,75.90
2019-04-23T08:54:19.400Z,79.20
2019-04-23T08:59:02.385Z,79.60
2019-04-23T09:01:43.513Z,78.50
2019-04-23T09:03:56.379Z,78.60
2019-04-23T09:06:35.308Z,79.20
2019-04-23T09:09:08.424Z,80.20
2019-04-23T09:14:00.911Z,77.50
2019-04-23T09:16:35.825Z,78.90
2019-04-23T09:21:41.887Z,78.60
2019-04-23T09:24:16.784Z,78.40
2019-04-23T09:26:40.491Z,78.90
2019-04-23T09:38:10.247Z,80.70
2019-04-23T09:43:27.044Z,78.40
2019-04-23T09:48:58.206Z,76.50
2019-04-23T09:51:27.340Z,77.00
2019-04-23T09:53:52.979Z,77.00
2019-04-23T09:56:32.404Z,77.80
2019-04-23T09:59:03.074Z,77.30
2019-04-23T10:03:52.110Z,74.60
2019-04-23T10:06:18.276Z,71.80
2019-04-23T10:08:47.554Z,72.90
2019-04-23T10:11:13.759Z,74.00
2019-04-23T10:13:45.086Z,74.50
2019-04-23T10:16:17.339Z,73.20
2019-04-23T10:18:47.010Z,73.70
2019-04-23T10:21:17.446Z,72.10
2019-04-23T10:23:47.466Z,71.20
2019-04-23T10:26:17.743Z,71.40
2019-04-23T10:28:54.021Z,73.00
2019-04-23T10:31:24.936Z,73.60
2019-04-23T10:33:55.965Z,73.60
2019-04-23T10:36:27.808Z,72.80
2019-04-23T10:39:06.198Z,72.40
2019-04-23T10:41:28.644Z,70.60
2019-04-23T10:44:21.353Z,69.00
2019-04-23T10:47:38.504Z,70.00
2019-04-23T10:50:37.474Z,70.80
2019-04-23T10:53:10.210Z,67.50
2019-04-23T10:55:39.768Z,69.40
2019-04-23T10:58:02.028Z,72.20
2019-04-23T11:00:37.741Z,71.20
2019-04-23T11:03:12.512Z,69.90
2019-04-23T11:08:02.361Z,67.40
2019-04-23T11:10:41.028Z,67.90
2019-04-23T11:13:19.421Z,67.20
2019-04-23T11:16:00.163Z,68.40
2019-04-23T11:18:33.817Z,67.80
2019-04-23T11:23:27.358Z,67.10
2019-04-23T11:25:48.439Z,66.00
2019-04-23T11:28:33.007Z,66.30
2019-04-23T11:30:55.304Z,66.60
2019-04-23T11:33:50.635Z,66.80
2019-04-23T11:41:17.709Z,65.50
2019-04-23T11:46:25.696Z,67.00
2019-04-23T11:48:52.313Z,63.90
2019-04-23T11:56:33.472Z,65.30
2019-04-23T11:58:44.643Z,65.30
2019-04-23T12:01:52.201Z,64.60
2019-04-23T12:04:37.225Z,63.40
2019-04-23T12:07:22.925Z,65.10
2019-04-23T12:12:33.383Z,64.40
2019-04-23T12:17:50.950Z,63.20
2019-04-23T12:20:28.903Z,61.50
2019-04-23T12:25:18.038Z,61.50
2019-04-23T12:27:33.498Z,62.10
2019-04-23T12:30:16.424Z,62.30
2019-04-23T12:33:03.214Z,60.70
2019-04-23T12:35:21.482Z,59.90
2019-04-23T12:38:18.965Z,59.50
2019-04-23T12:40:51.519Z,62.20
2019-04-23T12:43:30.726Z,61.70
2019-04-23T12:45:53.274Z,60.40
2019-04-23T12:48:42.084Z,59.90
2019-04-23T12:50:57.033Z,59.20
2019-04-23T12:56:05.420Z,60.20
2019-04-23T12:58:37.783Z,59.30
2019-04-23T13:00:57.979Z,58.80
2019-04-23T13:03:33.052Z,58.40
2019-04-23T13:06:02.850Z,58.20
2019-04-23T13:11:14.038Z,58.10
2019-04-23T13:13:45.918Z,58.40
2019-04-23T13:16:18.058Z,59.20
2019-04-23T13:18:48.180Z,58.30
2019-04-23T13:21:43.238Z,57.70
2019-04-23T13:23:47.606Z,57.30
2019-04-23T13:26:17.797Z,56.30
2019-04-23T13:28:52.597Z,54.70
2019-04-23T13:31:24.449Z,54.30
2019-04-23T13:33:57.673Z,54.10
2019-04-23T13:39:02.395Z,54.60
2019-04-23T13:41:31.619Z,52.70
2019-04-23T13:44:06.413Z,52.50
2019-04-23T13:46:41.022Z,53.30
2019-04-23T13:49:07.406Z,53.40
2019-04-23T13:51:44.774Z,53.50
2019-04-23T13:54:24.647Z,52.10
2019-04-23T13:57:12.799Z,52.00
2019-04-23T13:59:24.292Z,52.30
2019-04-23T14:01:58.563Z,52.60
2019-04-23T14:04:44.764Z,52.20
2019-04-23T14:07:14.670Z,51.30
2019-04-23T14:10:04.760Z,50.90
2019-04-23T14:12:18.226Z,51.10
2019-04-23T14:14:58.320Z,51.40
2019-04-23T14:17:36.184Z,51.70
2019-04-23T14:19:53.810Z,51.50
2019-04-23T14:22:52.093Z,51.50
2019-04-23T14:25:02.542Z,51.60
2019-04-23T14:27:29.772Z,51.30
2019-04-23T14:30:05.543Z,51.20
2019-04-23T14:32:29.435Z,50.70
2019-04-23T14:35:11.479Z,51.40
2019-04-23T14:37:31.063Z,52.20
2019-04-23T14:40:21.915Z,51.40
2019-04-23T14:42:56.194Z,50.80
2019-04-23T14:45:42.132Z,51.20
2019-04-23T14:48:02.797Z,52.20
2019-04-23T14:53:13.123Z,52.30
2019-04-23T14:55:53.304Z,52.20
2019-04-23T15:00:43.597Z,52.40
2019-04-23T15:05:45.105Z,52.40
2019-04-23T15:08:16.818Z,51.90
2019-04-23T15:10:58.242Z,52.40
2019-04-23T15:13:18.691Z,51.90
2019-04-23T15:15:55.647Z,52.90
2019-04-23T15:19:07.935Z,53.30
2019-04-23T15:24:00.838Z,52.30
2019-04-23T15:27:22.646Z,52.80
2019-04-23T15:28:37.400Z,52.40
2019-04-23T15:36:42.752Z,52.80
2019-04-23T15:39:11.703Z,53.40
2019-04-23T15:41:43.960Z,52.90
2019-04-23T15:44:08.677Z,52.50
2019-04-23T15:46:40.982Z,52.20
2019-04-23T15:49:14.723Z,52.10
2019-04-23T15:51:48.033Z,52.80
2019-04-23T15:54:13.734Z,53.10
2019-04-23T15:59:25.814Z,52.60
2019-04-23T16:01:44.199Z,53.00
2019-04-23T16:03:50.928Z,53.30
2019-04-23T16:06:23.552Z,53.20
2019-04-23T16:09:09.682Z,53.30
2019-04-23T16:17:05.086Z,54.50
2019-04-23T16:19:52.836Z,54.10
2019-04-23T16:22:21.949Z,54.40
2019-04-23T16:24:57.296Z,53.40
2019-04-23T16:27:16.266Z,53.50
2019-04-23T16:30:06.252Z,53.60
2019-04-23T16:35:29.185Z,53.90
2019-04-23T16:38:04.316Z,54.30
2019-04-23T16:43:02.084Z,54.20
2019-04-23T16:45:25.486Z,53.80
2019-04-23T16:47:59.590Z,53.70
2019-04-23T16:50:31.161Z,54.20
2019-04-23T16:53:05.018Z,54.00
2019-04-23T16:55:34.500Z,53.80
2019-04-23T16:58:13.547Z,53.80
2019-04-23T17:00:44.293Z,53.80
2019-04-23T17:03:11.170Z,54.10
2019-04-23T17:05:40.912Z,54.40
2019-04-23T17:10:46.909Z,55.20
2019-04-23T17:15:53.406Z,55.40
2019-04-23T17:18:16.851Z,56.20
2019-04-23T17:20:51.897Z,56.80
2019-04-23T17:23:29.448Z,56.70
2019-04-23T17:25:49.035Z,57.00
2019-04-23T17:28:24.670Z,56.40
2019-04-23T17:31:18.426Z,56.60
2019-04-23T17:33:34.639Z,56.50
2019-04-23T17:38:59.464Z,56.60
2019-04-23T17:41:38.810Z,57.20
2019-04-23T17:44:18.873Z,57.10
2019-04-23T17:49:13.183Z,57.70
2019-04-23T17:51:40.840Z,57.30
2019-04-23T17:56:58.188Z,57.90
2019-04-23T18:02:00.388Z,59.00
2019-04-23T18:04:27.424Z,59.90
2019-04-23T18:06:50.993Z,60.70
2019-04-23T18:09:27.905Z,59.80
2019-04-23T18:11:53.958Z,60.30
2019-04-23T18:14:18.212Z,61.30
2019-04-23T18:17:03.539Z,60.70
2019-04-23T18:19:24.621Z,61.50
2019-04-23T18:22:19.030Z,61.70
2019-04-23T18:25:04.346Z,63.80
2019-04-23T18:27:31.112Z,63.90
2019-04-23T18:30:15.601Z,66.40
2019-04-23T18:38:05.426Z,82.10
2019-04-23T18:40:38.774Z,79.20
2019-04-23T18:43:17.106Z,85.80
2019-04-23T18:51:03.383Z,76.60
2019-04-23T19:06:39.728Z,76.20
2019-04-23T19:09:49.136Z,79.00
2019-04-23T19:15:09.413Z,77.60
2019-04-23T19:20:01.106Z,78.00
2019-04-23T19:22:46.871Z,78.40
2019-04-23T19:25:09.662Z,79.50
2019-04-23T19:27:40.547Z,80.10
2019-04-23T19:30:28.119Z,80.70
2019-04-23T19:33:05.768Z,80.70
2019-04-23T19:35:53.776Z,80.90
2019-04-23T19:38:10.571Z,79.70
2019-04-23T19:40:46.320Z,79.50
2019-04-23T19:48:19.284Z,81.90
2019-04-23T19:53:32.230Z,82.30
2019-04-23T19:56:03.874Z,83.40
2019-04-23T19:58:29.999Z,82.40
2019-04-23T20:01:10.340Z,84.00
2019-04-23T20:03:37.651Z,82.20
2019-04-23T20:06:06.323Z,83.60
2019-04-23T20:08:49.093Z,82.50
2019-04-23T20:11:01.341Z,85.30
2019-04-23T20:13:46.593Z,84.80
2019-04-23T20:18:46.298Z,83.10
2019-04-23T20:21:03.877Z,84.40
2019-04-23T20:29:12.006Z,85.50
2019-04-23T20:33:22.096Z,85.90
2019-04-23T20:39:21.508Z,86.80
2019-04-23T20:47:06.254Z,88.90
2019-04-23T20:49:38.815Z,89.00
2019-04-23T20:52:04.782Z,89.20
2019-04-23T20:54:51.252Z,89.80
2019-04-23T20:57:43.584Z,90.40
2019-04-23T21:00:25.820Z,90.60
2019-04-23T21:03:25.388Z,91.00
2019-04-23T21:05:33.129Z,90.60
2019-04-23T21:08:06.440Z,90.50
2019-04-23T21:10:46.981Z,90.60
2019-04-23T21:13:15.155Z,91.20
2019-04-23T21:18:22.040Z,90.80
2019-04-23T21:20:49.968Z,91.00
2019-04-23T21:23:21.185Z,91.00
2019-04-23T21:25:49.121Z,91.20
2019-04-23T21:28:37.263Z,91.20
2019-04-23T21:31:22.874Z,91.30
2019-04-23T21:33:57.200Z,91.30
2019-04-23T21:36:37.826Z,91.30
2019-04-23T21:39:50.263Z,91.60
2019-04-23T21:42:21.154Z,91.70
2019-04-23T21:44:55.124Z,91.90
2019-04-23T21:47:31.420Z,92.40
2019-04-23T21:52:25.755Z,92.60
2019-04-23T21:54:56.892Z,92.60
2019-04-23T21:57:37.068Z,93.40
2019-04-23T22:00:00.600Z,93.20
2019-04-23T22:02:49.513Z,94.00
2019-04-23T22:05:09.341Z,94.10
2019-04-23T22:10:09.216Z,94.70
2019-04-23T22:12:54.237Z,94.30
2019-04-23T22:15:12.706Z,94.70
2019-04-23T22:17:44.647Z,94.60
2019-04-23T22:20:26.445Z,95.00
2019-04-23T22:25:23.692Z,95.00
2019-04-23T22:27:54.812Z,95.10
2019-04-23T22:30:30.409Z,94.90
2019-04-23T22:33:09.540Z,94.90
2019-04-23T22:35:23.932Z,95.00
2019-04-23T22:38:09.515Z,96.20
2019-04-23T22:40:27.802Z,96.00
2019-04-23T22:48:04.948Z,96.00
2019-04-23T22:50:44.182Z,95.60
2019-04-23T22:53:08.696Z,95.20
2019-04-23T22:55:47.599Z,95.20
2019-04-23T23:00:33.560Z,95.40
2019-04-23T23:03:21.126Z,95.90
2019-04-23T23:06:12.636Z,95.50
2019-04-23T23:08:21.168Z,95.90
2019-04-23T23:10:57.525Z,95.70
2019-04-23T23:13:33.405Z,95.80
2019-04-23T23:16:06.828Z,96.60
2019-04-23T23:18:24.748Z,96.90
2019-04-23T23:20:59.554Z,96.40
2019-04-23T23:26:10.010Z,96.50
2019-04-23T23:28:36.020Z,96.00
2019-04-23T23:31:07.062Z,96.60
2019-04-23T23:33:42.991Z,96.90
2019-04-23T23:36:14.075Z,96.60
2019-04-23T23:38:51.059Z,96.90
2019-04-23T23:43:59.646Z,97.30
2019-04-23T23:46:24.427Z,97.10
2019-04-23T23:48:48.404Z,96.80
2019-04-23T23:51:25.699Z,97.30
